Terminal Aerodrome Forecast
Issued by NWS Quad Cities IA IL

Home | Current Version | Previous Version | Text Only | Print | Product List | Glossary On
Versions: 1 2 3 4 5 6 7 8 9 10 11 12 13 14 15 16 17
000
FTUS43 KDVN 021720
TAFDBQ
TAF
KDBQ 021720Z 0218/0318 24013G20KT P6SM FEW100
     FM030000 24012KT P6SM SCT050
      TEMPO 0300/0302 3SM TSRA BKN035CB
     FM030200 32009KT P6SM SCT060
     FM030400 34006KT P6SM SKC=

USA.gov is the U.S. government's official web portal to all federal, state and local government web resources and services.